»·PEaware :: N446TB KFAT-KRNO

N446TB :: KFAT-KRNO

FLIGHT INFORMATION

Flight Status: Arrived
Operator: Privately registered:
United States
More flights under this callsign
Pilot: Georg L. (13308)
Aircraft: SOCATA TBM-900
(TBM9)
More flights by this aircraft type
Origin: KFAT Fresno Yosemite Intl
United States
Destination: KRNO Reno/Tahoe Intl
United States
More flights between these airports :: More routes between these airports
Route: +YOSE3 FRA J7 FMG
File this flight plan on PilotEdge
Remarks:
Altitude:
(Current/Filed)
28,000ft
Speed:
(Current/Filed)
319kts
Departed: 24-Mar-20 01:51 PM
Arrived: 24-Mar-20 02:30 PM
Distance/Time
Traveled:
164nm/0:39
Distance/Time
To Go:
Arrived

Flight Plot

Page will automatically refresh every two minutes.

Flight plan parsing failed; only flown route is shown


Map Options




Map Legend


Flown Route
Filed Route
Departure Airport
Arrival Airport
Navaid (VOR, NDB)
Fix

Horizontal Profiles

Position Reports

Time Latitude Longitude Heading Altitude Ground
Speed
24-Mar-20 13:01 36.778271 -119.729668 124 328ft 0kts
24-Mar-20 13:02 36.778271 -119.729668 124 328ft 0kts
24-Mar-20 13:03 36.778271 -119.729668 124 328ft 0kts
24-Mar-20 13:04 36.778271 -119.729668 124 328ft 0kts
24-Mar-20 13:05 36.778271 -119.729668 124 328ft 0kts
24-Mar-20 13:06 36.778271 -119.729668 124 328ft 0kts
24-Mar-20 13:07 36.778271 -119.729668 124 328ft 0kts
24-Mar-20 13:08 36.778271 -119.729668 124 328ft 0kts
24-Mar-20 13:09 36.778271 -119.729668 124 328ft 0kts
24-Mar-20 13:10 36.778271 -119.729668 124 328ft 0kts
24-Mar-20 13:11 36.778271 -119.729668 124 328ft 0kts
24-Mar-20 13:12 36.778271 -119.729668 124 328ft 0kts
24-Mar-20 13:13 36.778271 -119.729668 124 328ft 0kts
24-Mar-20 13:13 36.778271 -119.729668 124 328ft 0kts
24-Mar-20 13:15 36.778271 -119.729668 124 328ft 0kts
24-Mar-20 13:16 36.778271 -119.729668 124 328ft 0kts
24-Mar-20 13:16 36.778271 -119.729668 124 328ft 0kts
24-Mar-20 13:17 36.778271 -119.729668 124 328ft 0kts
24-Mar-20 13:19 36.778271 -119.729668 124 328ft 0kts
24-Mar-20 13:19 36.778271 -119.729668 124 328ft 0kts
24-Mar-20 13:20 36.778271 -119.729668 124 328ft 0kts
24-Mar-20 13:21 36.778271 -119.729668 124 328ft 0kts
24-Mar-20 13:22 36.778271 -119.729668 124 328ft 0kts
24-Mar-20 13:23 36.778271 -119.729668 124 328ft 0kts
24-Mar-20 13:24 36.778271 -119.729668 124 328ft 0kts
24-Mar-20 13:25 36.778271 -119.729668 124 328ft 0kts
24-Mar-20 13:26 36.778271 -119.729668 124 328ft 0kts
24-Mar-20 13:27 36.778271 -119.729668 124 328ft 0kts
24-Mar-20 13:28 36.778271 -119.729668 124 328ft 0kts
24-Mar-20 13:29 36.778271 -119.729668 124 328ft 0kts
24-Mar-20 13:30 36.778271 -119.729668 124 328ft 0kts
24-Mar-20 13:31 36.778271 -119.729668 124 328ft 0kts
24-Mar-20 13:32 36.778271 -119.729668 124 328ft 0kts
24-Mar-20 13:33 36.778271 -119.729668 124 328ft 0kts
24-Mar-20 13:34 36.778271 -119.729668 124 328ft 0kts
24-Mar-20 13:35 36.778271 -119.729668 124 328ft 0kts
24-Mar-20 13:36 36.778271 -119.729668 124 328ft 0kts
24-Mar-20 13:37 36.778271 -119.729668 124 328ft 0kts
24-Mar-20 13:38 36.778271 -119.729668 124 328ft 0kts
24-Mar-20 13:39 36.778271 -119.729667 124 328ft 0kts
24-Mar-20 13:40 36.778271 -119.729667 124 328ft 0kts
24-Mar-20 13:41 36.778271 -119.729667 124 328ft 0kts
24-Mar-20 13:42 36.778271 -119.729667 124 328ft 0kts
24-Mar-20 13:43 36.778847 -119.729437 77 328ft 6kts
24-Mar-20 13:44 36.776262 -119.724763 125 328ft 21kts
24-Mar-20 13:45 36.773202 -119.719391 123 328ft 10kts
24-Mar-20 13:46 36.772474 -119.716375 125 328ft 20kts
24-Mar-20 13:47 36.768968 -119.710237 125 328ft 21kts
24-Mar-20 13:48 36.767605 -119.705882 90 328ft 18kts
24-Mar-20 13:49 36.768499 -119.704031 31 331ft 7kts
24-Mar-20 13:50 36.774929 -119.714119 304 576ft 105kts
24-Mar-20 13:51 36.793739 -119.747994 304 2995ft 124kts
24-Mar-20 13:52 36.813613 -119.781624 304 5517ft 124kts
24-Mar-20 13:53 36.835225 -119.815380 304 8116ft 129kts
24-Mar-20 13:54 36.860173 -119.850872 304 10081ft 172kts
24-Mar-20 13:55 36.907818 -119.885520 22 10348ft 252kts
24-Mar-20 13:56 36.942032 -119.815467 62 12043ft 250kts
24-Mar-20 13:57 36.989721 -119.746651 44 12865ft 257kts
24-Mar-20 13:58 37.038185 -119.682962 47 14755ft 256kts
24-Mar-20 13:59 37.088494 -119.616625 49 16365ft 269kts
24-Mar-20 14:00 37.157743 -119.596515 351 17841ft 277kts
24-Mar-20 14:01 37.236183 -119.598573 349 19453ft 288kts
24-Mar-20 14:02 37.317436 -119.600534 347 21055ft 297kts
24-Mar-20 14:03 37.401114 -119.602556 345 22652ft 304kts
24-Mar-20 14:04 37.486256 -119.604656 343 24245ft 309kts
24-Mar-20 14:05 37.572953 -119.606787 341 25749ft 317kts
24-Mar-20 14:06 37.661269 -119.608915 339 27393ft 318kts
24-Mar-20 14:07 37.752117 -119.611399 340 28161ft 349kts
24-Mar-20 14:08 37.852671 -119.613772 341 28142ft 370kts
24-Mar-20 14:09 37.957111 -119.616312 341 28126ft 378kts
24-Mar-20 14:10 38.062705 -119.618892 341 28082ft 379kts
24-Mar-20 14:11 38.153806 -119.621152 342 28046ft 376kts
24-Mar-20 14:12 38.257977 -119.623751 341 28035ft 376kts
24-Mar-20 14:13 38.364808 -119.626584 343 26887ft 398kts
24-Mar-20 14:14 38.477673 -119.629347 346 24932ft 411kts
24-Mar-20 14:15 38.589944 -119.632008 347 24032ft 387kts
24-Mar-20 14:16 38.699908 -119.634934 349 22332ft 401kts
24-Mar-20 14:17 38.811557 -119.637741 351 20380ft 398kts
24-Mar-20 14:18 38.920461 -119.640448 352 18423ft 384kts
24-Mar-20 14:19 39.024930 -119.643066 352 16385ft 364kts
24-Mar-20 14:20 39.122721 -119.645605 353 13925ft 348kts
24-Mar-20 14:21 39.218301 -119.648030 354 11405ft 337kts
24-Mar-20 14:22 39.306303 -119.644658 14 10000ft 295kts
24-Mar-20 14:23 39.380374 -119.616354 13 9986ft 246kts
24-Mar-20 14:24 39.439064 -119.614330 329 8659ft 177kts
24-Mar-20 14:25 39.480284 -119.636703 304 8545ft 155kts
24-Mar-20 14:26 39.496479 -119.675812 274 7144ft 101kts
24-Mar-20 14:27 39.496769 -119.708729 251 5910ft 98kts
24-Mar-20 14:28 39.496292 -119.742705 260 4720ft 90kts
24-Mar-20 14:29 39.496209 -119.769351 271 4403ft 29kts
24-Mar-20 14:30 39.497369 -119.769978 93 4403ft 6kts
24-Mar-20 14:31 39.497344 -119.766089 91 4402ft 13kts
24-Mar-20 14:32 39.500315 -119.765721 0 4403ft 23kts
24-Mar-20 14:33 39.504692 -119.765569 149 4403ft 1kts
24-Mar-20 14:34 39.505782 -119.764970 358 4404ft 10kts
24-Mar-20 14:35 39.506306 -119.764645 7 4405ft 0kts
24-Mar-20 14:36 39.506306 -119.764645 7 4405ft 0kts
24-Mar-20 14:37 39.506306 -119.764645 7 4405ft 0kts
24-Mar-20 14:38 39.506306 -119.764645 7 4405ft 0kts
24-Mar-20 14:39 39.506306 -119.764645 7 4405ft 0kts
24-Mar-20 14:40 39.506306 -119.764645 7 4405ft 0kts
24-Mar-20 14:41 39.506306 -119.764645 7 4405ft 0kts

Navigation Log

Ident Type
Flight plan parsing failed, navigation log unavailable